Airport View

Enter AWOS ICAO identifier for current METAR.

ex. KFNL

KVVV 191916Z AUTO 09003KT 10SM CLR 23/11 A2978 RMK AO2

19 Jun 2019 19:36

Frequency: 119.225

Phone: 320-839-2363

Other Area AWOS: KAQP - KDXX - KMOX - KETH

TAF KATY 191735Z 1918/2018 16007KT P6SM BKN090 FM192300 13006KT P6SM VCTS BKN080CB FM201300 14010KT P6SM VCTS OVC028CB FM201500 15011KT P6SM VCTS OVC010CB FM201700 16012KT P6SM OVC016